sensor_id;sensor_type;location;lat;lon;timestamp;P1;durP1;ratioP1;P2;durP2;ratioP2
64244;SDS011;50584;29.058;-110.966;2023-05-07T00:01:36;10.02;;;4.13;;
64244;SDS011;50584;29.058;-110.966;2023-05-07T00:04:02;7.95;;;1.63;;
64244;SDS011;50584;29.058;-110.966;2023-05-07T00:06:28;4.70;;;1.33;;
64244;SDS011;50584;29.058;-110.966;2023-05-07T00:08:56;6.20;;;2.42;;
64244;SDS011;50584;29.058;-110.966;2023-05-07T00:11:22;4.50;;;1.30;;
64244;SDS011;50584;29.058;-110.966;2023-05-07T00:13:47;3.05;;;1.52;;
64244;SDS011;50584;29.058;-110.966;2023-05-07T00:16:13;10.65;;;2.00;;
64244;SDS011;50584;29.058;-110.966;2023-05-07T00:18:39;11.65;;;1.30;;
64244;SDS011;50584;29.058;-110.966;2023-05-07T00:21:05;3.92;;;1.08;;
64244;SDS011;50584;29.058;-110.966;2023-05-07T00:23:31;8.68;;;2.75;;
64244;SDS011;50584;29.058;-110.966;2023-05-07T00:25:56;7.95;;;1.98;;
64244;SDS011;50584;29.058;-110.966;2023-05-07T00:28:22;7.38;;;1.88;;
64244;SDS011;50584;29.058;-110.966;2023-05-07T00:30:48;14.60;;;1.88;;
64244;SDS011;50584;29.058;-110.966;2023-05-07T00:33:14;9.63;;;1.40;;
64244;SDS011;50584;29.058;-110.966;2023-05-07T00:35:39;5.63;;;1.48;;
64244;SDS011;50584;29.058;-110.966;2023-05-07T00:38:05;8.50;;;2.38;;
64244;SDS011;50584;29.058;-110.966;2023-05-07T00:40:31;5.80;;;1.42;;
64244;SDS011;50584;29.058;-110.966;2023-05-07T00:42:57;7.57;;;1.38;;
64244;SDS011;50584;29.058;-110.966;2023-05-07T00:45:26;3.55;;;1.00;;
64244;SDS011;50584;29.058;-110.966;2023-05-07T00:47:56;6.93;;;1.65;;
64244;SDS011;50584;29.058;-110.966;2023-05-07T00:50:22;8.52;;;1.70;;
64244;SDS011;50584;29.058;-110.966;2023-05-07T00:52:48;5.45;;;1.10;;
64244;SDS011;50584;29.058;-110.966;2023-05-07T00:55:14;8.52;;;1.30;;
64244;SDS011;50584;29.058;-110.966;2023-05-07T00:57:41;4.20;;;0.93;;
64244;SDS011;50584;29.058;-110.966;2023-05-07T01:00:07;5.32;;;1.20;;
64244;SDS011;50584;29.058;-110.966;2023-05-07T01:02:34;14.38;;;1.20;;
64244;SDS011;50584;29.058;-110.966;2023-05-07T01:05:01;4.10;;;1.10;;
64244;SDS011;50584;29.058;-110.966;2023-05-07T01:07:27;6.05;;;0.98;;
64244;SDS011;50584;29.058;-110.966;2023-05-07T01:09:53;3.67;;;1.10;;
64244;SDS011;50584;29.058;-110.966;2023-05-07T01:12:19;4.25;;;1.38;;
64244;SDS011;50584;29.058;-110.966;2023-05-07T01:14:45;5.13;;;1.33;;
64244;SDS011;50584;29.058;-110.966;2023-05-07T01:17:11;2.55;;;1.50;;
64244;SDS011;50584;29.058;-110.966;2023-05-07T01:19:37;5.80;;;1.30;;
64244;SDS011;50584;29.058;-110.966;2023-05-07T01:22:04;10.32;;;1.48;;
64244;SDS011;50584;29.058;-110.966;2023-05-07T01:24:32;2.13;;;1.00;;
64244;SDS011;50584;29.058;-110.966;2023-05-07T01:26:58;5.43;;;1.42;;
64244;SDS011;50584;29.058;-110.966;2023-05-07T01:29:26;6.53;;;1.20;;
64244;SDS011;50584;29.058;-110.966;2023-05-07T01:31:52;3.88;;;0.95;;
64244;SDS011;50584;29.058;-110.966;2023-05-07T01:34:18;5.13;;;0.90;;
64244;SDS011;50584;29.058;-110.966;2023-05-07T01:36:45;6.03;;;1.02;;
64244;SDS011;50584;29.058;-110.966;2023-05-07T01:39:11;9.52;;;1.52;;
64244;SDS011;50584;29.058;-110.966;2023-05-07T01:41:37;6.15;;;1.52;;
64244;SDS011;50584;29.058;-110.966;2023-05-07T01:44:03;3.83;;;1.00;;
64244;SDS011;50584;29.058;-110.966;2023-05-07T01:46:30;5.70;;;1.50;;
64244;SDS011;50584;29.058;-110.966;2023-05-07T01:48:56;2.85;;;1.00;;
64244;SDS011;50584;29.058;-110.966;2023-05-07T01:51:22;6.65;;;1.20;;
64244;SDS011;50584;29.058;-110.966;2023-05-07T01:53:48;9.43;;;1.25;;
64244;SDS011;50584;29.058;-110.966;2023-05-07T01:56:18;14.68;;;1.58;;
64244;SDS011;50584;29.058;-110.966;2023-05-07T01:58:44;5.32;;;1.30;;
64244;SDS011;50584;29.058;-110.966;2023-05-07T02:01:12;10.18;;;1.33;;
64244;SDS011;50584;29.058;-110.966;2023-05-07T02:03:38;12.90;;;1.23;;
64244;SDS011;50584;29.058;-110.966;2023-05-07T02:06:03;10.02;;;1.60;;
64244;SDS011;50584;29.058;-110.966;2023-05-07T02:08:29;4.38;;;1.50;;
64244;SDS011;50584;29.058;-110.966;2023-05-07T02:10:55;4.38;;;1.20;;
64244;SDS011;50584;29.058;-110.966;2023-05-07T02:13:21;4.15;;;1.58;;
64244;SDS011;50584;29.058;-110.966;2023-05-07T02:15:48;15.00;;;1.90;;
64244;SDS011;50584;29.058;-110.966;2023-05-07T02:18:16;7.60;;;2.03;;
64244;SDS011;50584;29.058;-110.966;2023-05-07T02:20:41;6.68;;;1.85;;
64244;SDS011;50584;29.058;-110.966;2023-05-07T02:23:07;7.93;;;2.03;;
64244;SDS011;50584;29.058;-110.966;2023-05-07T02:25:33;8.25;;;2.10;;
64244;SDS011;50584;29.058;-110.966;2023-05-07T02:27:59;11.77;;;2.42;;
64244;SDS011;50584;29.058;-110.966;2023-05-07T02:30:25;21.13;;;2.95;;
64244;SDS011;50584;29.058;-110.966;2023-05-07T02:32:51;13.35;;;2.95;;
64244;SDS011;50584;29.058;-110.966;2023-05-07T02:35:16;5.95;;;2.42;;
64244;SDS011;50584;29.058;-110.966;2023-05-07T02:37:42;12.05;;;1.88;;
64244;SDS011;50584;29.058;-110.966;2023-05-07T02:40:08;13.35;;;2.10;;
64244;SDS011;50584;29.058;-110.966;2023-05-07T02:42:34;13.93;;;2.40;;
64244;SDS011;50584;29.058;-110.966;2023-05-07T02:45:00;9.43;;;2.20;;
64244;SDS011;50584;29.058;-110.966;2023-05-07T02:47:26;10.38;;;2.58;;
64244;SDS011;50584;29.058;-110.966;2023-05-07T02:49:53;8.32;;;2.50;;
64244;SDS011;50584;29.058;-110.966;2023-05-07T02:52:19;23.88;;;2.55;;
64244;SDS011;50584;29.058;-110.966;2023-05-07T02:54:45;12.65;;;2.67;;
64244;SDS011;50584;29.058;-110.966;2023-05-07T02:57:10;19.33;;;2.78;;
64244;SDS011;50584;29.058;-110.966;2023-05-07T02:59:36;20.77;;;4.03;;
64244;SDS011;50584;29.058;-110.966;2023-05-07T03:02:02;7.78;;;2.17;;
64244;SDS011;50584;29.058;-110.966;2023-05-07T03:04:28;24.77;;;1.95;;
64244;SDS011;50584;29.058;-110.966;2023-05-07T03:06:53;21.88;;;3.72;;
64244;SDS011;50584;29.058;-110.966;2023-05-07T03:09:20;21.60;;;2.97;;
64244;SDS011;50584;29.058;-110.966;2023-05-07T03:11:45;9.18;;;2.13;;
64244;SDS011;50584;29.058;-110.966;2023-05-07T03:14:11;10.77;;;2.17;;
64244;SDS011;50584;29.058;-110.966;2023-05-07T03:16:37;11.15;;;1.92;;
64244;SDS011;50584;29.058;-110.966;2023-05-07T03:19:03;22.02;;;2.20;;
64244;SDS011;50584;29.058;-110.966;2023-05-07T03:21:29;16.58;;;2.22;;
64244;SDS011;50584;29.058;-110.966;2023-05-07T03:23:55;12.02;;;1.83;;
64244;SDS011;50584;29.058;-110.966;2023-05-07T03:26:21;4.05;;;2.05;;
64244;SDS011;50584;29.058;-110.966;2023-05-07T03:28:47;7.30;;;1.58;;
64244;SDS011;50584;29.058;-110.966;2023-05-07T03:31:13;7.45;;;1.35;;
64244;SDS011;50584;29.058;-110.966;2023-05-07T03:33:49;6.57;;;1.30;;
64244;SDS011;50584;29.058;-110.966;2023-05-07T03:36:16;10.85;;;1.65;;
64244;SDS011;50584;29.058;-110.966;2023-05-07T03:38:42;4.85;;;1.58;;
64244;SDS011;50584;29.058;-110.966;2023-05-07T03:41:07;5.95;;;1.05;;
64244;SDS011;50584;29.058;-110.966;2023-05-07T03:43:33;19.15;;;1.83;;
64244;SDS011;50584;29.058;-110.966;2023-05-07T03:45:59;13.68;;;2.63;;
64244;SDS011;50584;29.058;-110.966;2023-05-07T03:48:25;11.93;;;4.80;;
64244;SDS011;50584;29.058;-110.966;2023-05-07T03:50:51;22.75;;;14.95;;
64244;SDS011;50584;29.058;-110.966;2023-05-07T03:53:17;16.08;;;12.70;;
64244;SDS011;50584;29.058;-110.966;2023-05-07T03:55:42;15.38;;;8.57;;
64244;SDS011;50584;29.058;-110.966;2023-05-07T03:58:08;15.48;;;11.02;;
64244;SDS011;50584;29.058;-110.966;2023-05-07T04:00:34;17.60;;;12.80;;
64244;SDS011;50584;29.058;-110.966;2023-05-07T04:03:03;13.32;;;8.52;;
64244;SDS011;50584;29.058;-110.966;2023-05-07T04:05:30;8.18;;;5.53;;
64244;SDS011;50584;29.058;-110.966;2023-05-07T04:07:57;10.55;;;4.80;;
64244;SDS011;50584;29.058;-110.966;2023-05-07T04:10:23;10.45;;;7.30;;
64244;SDS011;50584;29.058;-110.966;2023-05-07T04:12:49;6.38;;;1.83;;
64244;SDS011;50584;29.058;-110.966;2023-05-07T04:15:14;16.67;;;2.45;;
64244;SDS011;50584;29.058;-110.966;2023-05-07T04:17:40;8.75;;;2.78;;
64244;SDS011;50584;29.058;-110.966;2023-05-07T04:20:08;8.82;;;3.00;;
64244;SDS011;50584;29.058;-110.966;2023-05-07T04:22:34;8.48;;;4.35;;
64244;SDS011;50584;29.058;-110.966;2023-05-07T04:25:00;10.38;;;4.90;;
64244;SDS011;50584;29.058;-110.966;2023-05-07T04:27:26;14.82;;;7.88;;
64244;SDS011;50584;29.058;-110.966;2023-05-07T04:29:53;9.18;;;4.45;;
64244;SDS011;50584;29.058;-110.966;2023-05-07T04:32:21;7.10;;;2.88;;
64244;SDS011;50584;29.058;-110.966;2023-05-07T04:34:46;11.43;;;3.28;;
64244;SDS011;50584;29.058;-110.966;2023-05-07T04:37:12;10.23;;;5.80;;
64244;SDS011;50584;29.058;-110.966;2023-05-07T04:39:38;13.27;;;5.82;;
64244;SDS011;50584;29.058;-110.966;2023-05-07T04:42:04;10.57;;;2.35;;
64244;SDS011;50584;29.058;-110.966;2023-05-07T04:44:30;6.43;;;1.75;;
64244;SDS011;50584;29.058;-110.966;2023-05-07T04:46:56;40.08;;;18.38;;
64244;SDS011;50584;29.058;-110.966;2023-05-07T04:49:22;17.98;;;8.35;;
64244;SDS011;50584;29.058;-110.966;2023-05-07T04:51:48;19.52;;;9.68;;
64244;SDS011;50584;29.058;-110.966;2023-05-07T04:54:14;18.98;;;5.50;;
64244;SDS011;50584;29.058;-110.966;2023-05-07T04:56:40;21.67;;;11.23;;
64244;SDS011;50584;29.058;-110.966;2023-05-07T04:59:05;17.85;;;8.90;;
64244;SDS011;50584;29.058;-110.966;2023-05-07T05:01:31;27.45;;;12.60;;
64244;SDS011;50584;29.058;-110.966;2023-05-07T05:03:57;19.67;;;10.90;;
64244;SDS011;50584;29.058;-110.966;2023-05-07T05:06:23;9.68;;;5.55;;
64244;SDS011;50584;29.058;-110.966;2023-05-07T05:08:49;19.98;;;6.55;;
64244;SDS011;50584;29.058;-110.966;2023-05-07T05:11:14;14.00;;;4.78;;
64244;SDS011;50584;29.058;-110.966;2023-05-07T05:13:40;15.32;;;5.95;;
64244;SDS011;50584;29.058;-110.966;2023-05-07T05:16:06;8.57;;;3.00;;
64244;SDS011;50584;29.058;-110.966;2023-05-07T05:18:32;11.40;;;3.30;;
64244;SDS011;50584;29.058;-110.966;2023-05-07T05:20:58;8.93;;;2.80;;
64244;SDS011;50584;29.058;-110.966;2023-05-07T05:23:23;17.83;;;2.33;;
64244;SDS011;50584;29.058;-110.966;2023-05-07T05:25:49;16.60;;;2.97;;
64244;SDS011;50584;29.058;-110.966;2023-05-07T05:28:15;12.93;;;2.80;;
64244;SDS011;50584;29.058;-110.966;2023-05-07T05:30:41;12.52;;;2.33;;
64244;SDS011;50584;29.058;-110.966;2023-05-07T05:33:07;14.90;;;2.30;;
64244;SDS011;50584;29.058;-110.966;2023-05-07T05:35:32;17.42;;;2.88;;
64244;SDS011;50584;29.058;-110.966;2023-05-07T05:37:58;6.40;;;1.73;;
64244;SDS011;50584;29.058;-110.966;2023-05-07T05:40:24;13.07;;;2.03;;
64244;SDS011;50584;29.058;-110.966;2023-05-07T05:42:50;9.30;;;1.80;;
64244;SDS011;50584;29.058;-110.966;2023-05-07T05:45:15;6.35;;;1.48;;
64244;SDS011;50584;29.058;-110.966;2023-05-07T05:47:41;16.25;;;2.45;;
64244;SDS011;50584;29.058;-110.966;2023-05-07T05:50:07;8.73;;;2.20;;
64244;SDS011;50584;29.058;-110.966;2023-05-07T05:52:33;32.10;;;3.13;;
64244;SDS011;50584;29.058;-110.966;2023-05-07T05:54:58;9.88;;;2.10;;
64244;SDS011;50584;29.058;-110.966;2023-05-07T05:57:24;5.47;;;1.63;;
64244;SDS011;50584;29.058;-110.966;2023-05-07T05:59:50;10.90;;;1.73;;
64244;SDS011;50584;29.058;-110.966;2023-05-07T06:02:16;3.25;;;1.27;;
64244;SDS011;50584;29.058;-110.966;2023-05-07T06:04:42;3.92;;;1.33;;
64244;SDS011;50584;29.058;-110.966;2023-05-07T06:07:12;1.85;;;1.20;;
64244;SDS011;50584;29.058;-110.966;2023-05-07T06:09:46;2.70;;;1.45;;
64244;SDS011;50584;29.058;-110.966;2023-05-07T06:12:12;19.08;;;1.95;;
64244;SDS011;50584;29.058;-110.966;2023-05-07T06:14:37;4.28;;;1.63;;
64244;SDS011;50584;29.058;-110.966;2023-05-07T06:17:03;8.25;;;1.25;;
64244;SDS011;50584;29.058;-110.966;2023-05-07T06:19:29;4.80;;;1.52;;
64244;SDS011;50584;29.058;-110.966;2023-05-07T06:21:55;3.97;;;1.30;;
64244;SDS011;50584;29.058;-110.966;2023-05-07T06:24:23;9.80;;;1.50;;
64244;SDS011;50584;29.058;-110.966;2023-05-07T06:26:49;6.78;;;1.40;;
64244;SDS011;50584;29.058;-110.966;2023-05-07T06:29:15;7.25;;;1.83;;
64244;SDS011;50584;29.058;-110.966;2023-05-07T06:31:41;1.40;;;1.10;;
64244;SDS011;50584;29.058;-110.966;2023-05-07T06:34:07;3.92;;;1.58;;
64244;SDS011;50584;29.058;-110.966;2023-05-07T06:36:33;4.95;;;1.35;;
64244;SDS011;50584;29.058;-110.966;2023-05-07T06:38:59;6.53;;;1.25;;
64244;SDS011;50584;29.058;-110.966;2023-05-07T06:41:25;1.38;;;1.10;;
64244;SDS011;50584;29.058;-110.966;2023-05-07T06:43:51;6.68;;;1.20;;
64244;SDS011;50584;29.058;-110.966;2023-05-07T06:46:17;6.60;;;1.83;;
64244;SDS011;50584;29.058;-110.966;2023-05-07T06:48:42;5.30;;;1.75;;
64244;SDS011;50584;29.058;-110.966;2023-05-07T06:51:08;5.72;;;1.77;;
64244;SDS011;50584;29.058;-110.966;2023-05-07T06:53:34;5.15;;;1.60;;
64244;SDS011;50584;29.058;-110.966;2023-05-07T06:56:00;8.35;;;1.50;;
64244;SDS011;50584;29.058;-110.966;2023-05-07T06:58:26;9.80;;;1.58;;
64244;SDS011;50584;29.058;-110.966;2023-05-07T07:00:52;6.57;;;1.85;;
64244;SDS011;50584;29.058;-110.966;2023-05-07T07:03:18;5.05;;;1.40;;
64244;SDS011;50584;29.058;-110.966;2023-05-07T07:05:43;3.17;;;1.50;;
64244;SDS011;50584;29.058;-110.966;2023-05-07T07:08:09;12.80;;;2.05;;
64244;SDS011;50584;29.058;-110.966;2023-05-07T07:10:35;8.52;;;2.17;;
64244;SDS011;50584;29.058;-110.966;2023-05-07T07:13:01;16.33;;;2.97;;
64244;SDS011;50584;29.058;-110.966;2023-05-07T07:15:27;20.80;;;2.40;;
64244;SDS011;50584;29.058;-110.966;2023-05-07T07:17:52;8.70;;;2.35;;
64244;SDS011;50584;29.058;-110.966;2023-05-07T07:20:18;6.85;;;2.08;;
64244;SDS011;50584;29.058;-110.966;2023-05-07T07:22:44;9.02;;;2.35;;
64244;SDS011;50584;29.058;-110.966;2023-05-07T07:25:10;5.68;;;2.10;;
64244;SDS011;50584;29.058;-110.966;2023-05-07T07:27:37;8.43;;;2.35;;
64244;SDS011;50584;29.058;-110.966;2023-05-07T07:30:03;14.45;;;2.85;;
64244;SDS011;50584;29.058;-110.966;2023-05-07T07:32:29;7.47;;;2.88;;
64244;SDS011;50584;29.058;-110.966;2023-05-07T07:34:55;7.82;;;2.58;;
64244;SDS011;50584;29.058;-110.966;2023-05-07T07:37:20;12.98;;;2.85;;
64244;SDS011;50584;29.058;-110.966;2023-05-07T07:39:46;6.78;;;2.35;;
64244;SDS011;50584;29.058;-110.966;2023-05-07T07:42:12;12.05;;;2.30;;
64244;SDS011;50584;29.058;-110.966;2023-05-07T07:44:38;4.45;;;2.83;;
64244;SDS011;50584;29.058;-110.966;2023-05-07T07:47:04;15.00;;;2.50;;
64244;SDS011;50584;29.058;-110.966;2023-05-07T07:49:30;10.65;;;2.83;;
64244;SDS011;50584;29.058;-110.966;2023-05-07T07:51:56;6.00;;;2.65;;
64244;SDS011;50584;29.058;-110.966;2023-05-07T07:54:24;6.68;;;2.35;;
64244;SDS011;50584;29.058;-110.966;2023-05-07T07:56:50;4.65;;;2.40;;
64244;SDS011;50584;29.058;-110.966;2023-05-07T07:59:16;5.10;;;2.78;;
64244;SDS011;50584;29.058;-110.966;2023-05-07T08:01:44;9.43;;;2.95;;
64244;SDS011;50584;29.058;-110.966;2023-05-07T08:04:10;5.60;;;2.70;;
64244;SDS011;50584;29.058;-110.966;2023-05-07T08:06:36;5.45;;;2.42;;
64244;SDS011;50584;29.058;-110.966;2023-05-07T08:09:01;14.75;;;3.78;;
64244;SDS011;50584;29.058;-110.966;2023-05-07T08:11:27;13.10;;;2.95;;
64244;SDS011;50584;29.058;-110.966;2023-05-07T08:13:54;10.48;;;3.00;;
64244;SDS011;50584;29.058;-110.966;2023-05-07T08:16:20;17.42;;;3.60;;
64244;SDS011;50584;29.058;-110.966;2023-05-07T08:18:45;17.00;;;2.72;;
64244;SDS011;50584;29.058;-110.966;2023-05-07T08:21:11;13.70;;;2.65;;
64244;SDS011;50584;29.058;-110.966;2023-05-07T08:23:37;21.33;;;2.92;;
64244;SDS011;50584;29.058;-110.966;2023-05-07T08:26:03;22.25;;;3.35;;
64244;SDS011;50584;29.058;-110.966;2023-05-07T08:28:28;15.50;;;3.45;;
64244;SDS011;50584;29.058;-110.966;2023-05-07T08:30:54;18.98;;;3.00;;
64244;SDS011;50584;29.058;-110.966;2023-05-07T08:33:21;17.35;;;3.25;;
64244;SDS011;50584;29.058;-110.966;2023-05-07T08:35:47;14.63;;;2.58;;
64244;SDS011;50584;29.058;-110.966;2023-05-07T08:38:13;14.25;;;2.30;;
64244;SDS011;50584;29.058;-110.966;2023-05-07T08:40:39;14.10;;;2.70;;
64244;SDS011;50584;29.058;-110.966;2023-05-07T08:43:06;9.38;;;2.60;;
64244;SDS011;50584;29.058;-110.966;2023-05-07T08:45:35;10.65;;;2.90;;
64244;SDS011;50584;29.058;-110.966;2023-05-07T08:48:05;18.42;;;2.50;;
64244;SDS011;50584;29.058;-110.966;2023-05-07T08:50:35;9.15;;;2.00;;
64244;SDS011;50584;29.058;-110.966;2023-05-07T08:53:04;8.45;;;2.05;;
64244;SDS011;50584;29.058;-110.966;2023-05-07T08:55:30;7.00;;;1.88;;
64244;SDS011;50584;29.058;-110.966;2023-05-07T08:57:56;7.95;;;1.77;;
64244;SDS011;50584;29.058;-110.966;2023-05-07T09:00:22;12.18;;;2.33;;
64244;SDS011;50584;29.058;-110.966;2023-05-07T09:02:47;5.45;;;1.77;;
64244;SDS011;50584;29.058;-110.966;2023-05-07T09:05:13;7.05;;;1.95;;
64244;SDS011;50584;29.058;-110.966;2023-05-07T09:07:39;10.38;;;1.63;;
64244;SDS011;50584;29.058;-110.966;2023-05-07T09:10:05;7.45;;;1.70;;
64244;SDS011;50584;29.058;-110.966;2023-05-07T09:12:31;7.38;;;1.80;;
64244;SDS011;50584;29.058;-110.966;2023-05-07T09:14:57;15.18;;;2.00;;
64244;SDS011;50584;29.058;-110.966;2023-05-07T09:17:24;6.18;;;1.83;;
64244;SDS011;50584;29.058;-110.966;2023-05-07T09:19:49;9.65;;;1.90;;
64244;SDS011;50584;29.058;-110.966;2023-05-07T09:22:15;9.32;;;2.65;;
64244;SDS011;50584;29.058;-110.966;2023-05-07T09:24:46;7.57;;;2.10;;
64244;SDS011;50584;29.058;-110.966;2023-05-07T09:29:38;7.50;;;2.20;;
64244;SDS011;50584;29.058;-110.966;2023-05-07T09:32:08;4.53;;;2.30;;
64244;SDS011;50584;29.058;-110.966;2023-05-07T09:34:34;11.48;;;3.08;;
64244;SDS011;50584;29.058;-110.966;2023-05-07T09:37:03;14.85;;;3.30;;
64244;SDS011;50584;29.058;-110.966;2023-05-07T09:39:45;10.32;;;3.05;;
64244;SDS011;50584;29.058;-110.966;2023-05-07T09:42:11;11.25;;;4.07;;
64244;SDS011;50584;29.058;-110.966;2023-05-07T09:44:40;14.55;;;4.07;;
64244;SDS011;50584;29.058;-110.966;2023-05-07T09:47:06;5.80;;;3.90;;
64244;SDS011;50584;29.058;-110.966;2023-05-07T09:49:36;16.52;;;5.25;;
64244;SDS011;50584;29.058;-110.966;2023-05-07T09:52:03;24.80;;;5.70;;
64244;SDS011;50584;29.058;-110.966;2023-05-07T09:54:31;26.10;;;6.38;;
64244;SDS011;50584;29.058;-110.966;2023-05-07T09:56:58;29.65;;;6.80;;
64244;SDS011;50584;29.058;-110.966;2023-05-07T09:59:24;34.05;;;4.45;;
64244;SDS011;50584;29.058;-110.966;2023-05-07T10:01:50;13.90;;;4.43;;
64244;SDS011;50584;29.058;-110.966;2023-05-07T10:04:16;32.58;;;4.55;;
64244;SDS011;50584;29.058;-110.966;2023-05-07T10:06:43;19.88;;;4.32;;
64244;SDS011;50584;29.058;-110.966;2023-05-07T10:09:10;19.42;;;4.30;;
64244;SDS011;50584;29.058;-110.966;2023-05-07T10:11:36;15.82;;;3.40;;
64244;SDS011;50584;29.058;-110.966;2023-05-07T10:14:02;16.65;;;3.70;;
64244;SDS011;50584;29.058;-110.966;2023-05-07T10:16:32;24.23;;;4.55;;
64244;SDS011;50584;29.058;-110.966;2023-05-07T10:19:04;18.00;;;3.33;;
64244;SDS011;50584;29.058;-110.966;2023-05-07T10:21:30;22.58;;;3.75;;
64244;SDS011;50584;29.058;-110.966;2023-05-07T10:24:00;11.80;;;3.45;;
64244;SDS011;50584;29.058;-110.966;2023-05-07T10:26:31;14.65;;;3.35;;
64244;SDS011;50584;29.058;-110.966;2023-05-07T10:29:02;16.45;;;3.20;;
64244;SDS011;50584;29.058;-110.966;2023-05-07T10:31:38;21.75;;;4.05;;
64244;SDS011;50584;29.058;-110.966;2023-05-07T10:34:12;14.00;;;3.58;;
64244;SDS011;50584;29.058;-110.966;2023-05-07T10:36:40;17.02;;;3.42;;
64244;SDS011;50584;29.058;-110.966;2023-05-07T10:39:07;9.85;;;3.25;;
64244;SDS011;50584;29.058;-110.966;2023-05-07T10:41:33;8.63;;;2.95;;
64244;SDS011;50584;29.058;-110.966;2023-05-07T10:43:59;14.93;;;3.63;;
64244;SDS011;50584;29.058;-110.966;2023-05-07T10:46:27;11.63;;;2.83;;
64244;SDS011;50584;29.058;-110.966;2023-05-07T10:51:28;24.55;;;3.05;;
64244;SDS011;50584;29.058;-110.966;2023-05-07T11:02:02;14.82;;;2.67;;
64244;SDS011;50584;29.058;-110.966;2023-05-07T11:04:29;14.75;;;2.80;;
64244;SDS011;50584;29.058;-110.966;2023-05-07T11:17:31;17.73;;;2.70;;
64244;SDS011;50584;29.058;-110.966;2023-05-07T11:20:00;6.13;;;2.42;;
64244;SDS011;50584;29.058;-110.966;2023-05-07T11:25:04;9.77;;;2.22;;
64244;SDS011;50584;29.058;-110.966;2023-05-07T11:27:31;18.88;;;2.78;;
64244;SDS011;50584;29.058;-110.966;2023-05-07T11:29:57;11.52;;;2.17;;
64244;SDS011;50584;29.058;-110.966;2023-05-07T11:32:26;15.73;;;2.45;;
64244;SDS011;50584;29.058;-110.966;2023-05-07T11:34:55;13.43;;;2.30;;
64244;SDS011;50584;29.058;-110.966;2023-05-07T11:37:22;9.80;;;1.90;;
64244;SDS011;50584;29.058;-110.966;2023-05-07T11:39:48;9.45;;;1.77;;
64244;SDS011;50584;29.058;-110.966;2023-05-07T11:42:33;10.18;;;2.00;;
64244;SDS011;50584;29.058;-110.966;2023-05-07T11:44:59;9.18;;;2.08;;
64244;SDS011;50584;29.058;-110.966;2023-05-07T11:47:25;13.60;;;2.58;;
64244;SDS011;50584;29.058;-110.966;2023-05-07T11:49:52;12.52;;;2.50;;
64244;SDS011;50584;29.058;-110.966;2023-05-07T11:52:19;5.15;;;2.13;;
64244;SDS011;50584;29.058;-110.966;2023-05-07T11:54:51;12.10;;;1.90;;
64244;SDS011;50584;29.058;-110.966;2023-05-07T11:57:17;9.52;;;2.10;;
64244;SDS011;50584;29.058;-110.966;2023-05-07T11:59:42;15.40;;;2.85;;
64244;SDS011;50584;29.058;-110.966;2023-05-07T12:02:16;3.63;;;1.95;;
64244;SDS011;50584;29.058;-110.966;2023-05-07T12:04:42;8.05;;;2.03;;
64244;SDS011;50584;29.058;-110.966;2023-05-07T12:07:12;7.60;;;2.10;;
64244;SDS011;50584;29.058;-110.966;2023-05-07T12:09:39;18.73;;;2.65;;
64244;SDS011;50584;29.058;-110.966;2023-05-07T12:12:05;8.77;;;2.65;;
64244;SDS011;50584;29.058;-110.966;2023-05-07T12:14:31;4.95;;;2.33;;
64244;SDS011;50584;29.058;-110.966;2023-05-07T12:17:01;15.20;;;2.85;;
64244;SDS011;50584;29.058;-110.966;2023-05-07T12:19:30;6.97;;;2.00;;
64244;SDS011;50584;29.058;-110.966;2023-05-07T12:21:56;7.28;;;2.17;;
64244;SDS011;50584;29.058;-110.966;2023-05-07T12:24:22;10.45;;;2.25;;
64244;SDS011;50584;29.058;-110.966;2023-05-07T12:26:48;17.85;;;2.13;;
64244;SDS011;50584;29.058;-110.966;2023-05-07T12:29:14;8.45;;;1.95;;
64244;SDS011;50584;29.058;-110.966;2023-05-07T12:31:43;8.07;;;2.10;;
64244;SDS011;50584;29.058;-110.966;2023-05-07T12:34:12;10.10;;;2.35;;
64244;SDS011;50584;29.058;-110.966;2023-05-07T12:36:38;5.97;;;2.22;;
64244;SDS011;50584;29.058;-110.966;2023-05-07T12:39:04;6.05;;;1.80;;
64244;SDS011;50584;29.058;-110.966;2023-05-07T12:41:34;1.60;;;1.50;;
64244;SDS011;50584;29.058;-110.966;2023-05-07T12:44:01;7.93;;;1.90;;
64244;SDS011;50584;29.058;-110.966;2023-05-07T12:46:29;6.38;;;2.17;;
64244;SDS011;50584;29.058;-110.966;2023-05-07T12:48:55;5.65;;;2.17;;
64244;SDS011;50584;29.058;-110.966;2023-05-07T12:51:21;3.53;;;1.70;;
64244;SDS011;50584;29.058;-110.966;2023-05-07T12:53:47;7.28;;;1.88;;
64244;SDS011;50584;29.058;-110.966;2023-05-07T12:56:15;6.72;;;1.67;;
64244;SDS011;50584;29.058;-110.966;2023-05-07T12:58:41;5.03;;;1.90;;
64244;SDS011;50584;29.058;-110.966;2023-05-07T13:01:07;4.65;;;1.80;;
64244;SDS011;50584;29.058;-110.966;2023-05-07T13:03:35;7.68;;;1.70;;
64244;SDS011;50584;29.058;-110.966;2023-05-07T13:06:02;10.25;;;2.10;;
64244;SDS011;50584;29.058;-110.966;2023-05-07T13:08:30;6.95;;;1.90;;
64244;SDS011;50584;29.058;-110.966;2023-05-07T13:10:59;8.95;;;1.90;;
64244;SDS011;50584;29.058;-110.966;2023-05-07T13:13:25;7.00;;;1.88;;
64244;SDS011;50584;29.058;-110.966;2023-05-07T13:15:51;6.05;;;1.90;;
64244;SDS011;50584;29.058;-110.966;2023-05-07T13:18:17;9.68;;;2.65;;
64244;SDS011;50584;29.058;-110.966;2023-05-07T13:20:43;8.02;;;1.95;;
64244;SDS011;50584;29.058;-110.966;2023-05-07T13:23:08;7.38;;;2.03;;
64244;SDS011;50584;29.058;-110.966;2023-05-07T13:25:34;10.13;;;1.90;;
64244;SDS011;50584;29.058;-110.966;2023-05-07T13:28:00;7.25;;;1.95;;
64244;SDS011;50584;29.058;-110.966;2023-05-07T13:30:26;5.88;;;2.35;;
64244;SDS011;50584;29.058;-110.966;2023-05-07T13:32:53;7.60;;;2.92;;
64244;SDS011;50584;29.058;-110.966;2023-05-07T13:35:20;6.18;;;2.15;;
64244;SDS011;50584;29.058;-110.966;2023-05-07T13:37:46;10.60;;;2.30;;
64244;SDS011;50584;29.058;-110.966;2023-05-07T13:40:14;8.40;;;2.20;;
64244;SDS011;50584;29.058;-110.966;2023-05-07T13:42:40;14.48;;;2.30;;
64244;SDS011;50584;29.058;-110.966;2023-05-07T13:45:06;10.75;;;2.00;;
64244;SDS011;50584;29.058;-110.966;2023-05-07T13:47:32;12.15;;;1.90;;
64244;SDS011;50584;29.058;-110.966;2023-05-07T13:49:58;4.25;;;1.80;;
64244;SDS011;50584;29.058;-110.966;2023-05-07T13:52:24;10.63;;;2.00;;
64244;SDS011;50584;29.058;-110.966;2023-05-07T13:54:51;12.20;;;1.83;;
64244;SDS011;50584;29.058;-110.966;2023-05-07T13:57:17;13.57;;;2.00;;
64244;SDS011;50584;29.058;-110.966;2023-05-07T13:59:43;11.75;;;1.90;;
64244;SDS011;50584;29.058;-110.966;2023-05-07T14:02:09;9.70;;;2.30;;
64244;SDS011;50584;29.058;-110.966;2023-05-07T14:04:35;7.10;;;1.67;;
64244;SDS011;50584;29.058;-110.966;2023-05-07T14:07:01;12.20;;;3.35;;
64244;SDS011;50584;29.058;-110.966;2023-05-07T14:09:26;41.95;;;15.52;;
64244;SDS011;50584;29.058;-110.966;2023-05-07T14:11:52;13.00;;;8.45;;
64244;SDS011;50584;29.058;-110.966;2023-05-07T14:14:18;28.17;;;11.43;;
64244;SDS011;50584;29.058;-110.966;2023-05-07T14:16:44;10.88;;;6.45;;
64244;SDS011;50584;29.058;-110.966;2023-05-07T14:19:10;16.90;;;3.50;;
64244;SDS011;50584;29.058;-110.966;2023-05-07T14:21:36;21.38;;;5.68;;
64244;SDS011;50584;29.058;-110.966;2023-05-07T14:24:02;8.88;;;3.40;;
64244;SDS011;50584;29.058;-110.966;2023-05-07T14:26:28;7.85;;;3.30;;